createdAt,value
2023-04-29T00:01:36.142Z,65.87
2023-04-29T00:06:37.821Z,65.95
2023-04-29T00:11:39.510Z,66.78
2023-04-29T00:16:41.267Z,67.30
2023-04-29T00:21:43.048Z,67.21
2023-04-29T00:26:44.745Z,66.59
2023-04-29T00:31:47.058Z,65.97
2023-04-29T00:36:49.221Z,65.85
2023-04-29T00:41:52.988Z,66.10
2023-04-29T00:46:55.961Z,66.18
2023-04-29T00:51:57.907Z,66.40
2023-04-29T00:57:02.733Z,66.52
2023-04-29T01:02:04.909Z,66.59
2023-04-29T01:07:19.102Z,66.68
2023-04-29T01:12:25.313Z,66.39
2023-04-29T01:17:31.789Z,66.07
2023-04-29T01:22:33.826Z,65.99
2023-04-29T01:27:54.525Z,66.02
2023-04-29T01:33:39.160Z,66.08
2023-04-29T01:39:08.680Z,65.88
2023-04-29T01:44:18.619Z,65.96
2023-04-29T01:49:29.759Z,66.55
2023-04-29T01:54:32.155Z,67.26
2023-04-29T01:59:34.555Z,67.24
2023-04-29T02:04:45.490Z,67.59
2023-04-29T02:09:48.006Z,68.61
2023-04-29T02:14:53.324Z,68.04
2023-04-29T02:19:55.986Z,68.59
2023-04-29T02:24:58.404Z,68.45
2023-04-29T02:30:00.065Z,67.77
2023-04-29T02:35:02.003Z,67.85
2023-04-29T02:40:05.163Z,68.18
2023-04-29T02:45:07.989Z,68.99
2023-04-29T02:50:10.169Z,68.24
2023-04-29T02:55:12.063Z,70.12
2023-04-29T03:00:13.860Z,70.77
2023-04-29T03:05:15.616Z,70.88
2023-04-29T03:10:19.144Z,70.76
2023-04-29T03:15:21.583Z,70.70
2023-04-29T03:20:24.669Z,70.65
2023-04-29T03:25:26.635Z,70.53
2023-04-29T03:30:28.742Z,71.49
2023-04-29T03:35:32.117Z,71.66
2023-04-29T03:40:54.285Z,72.09
2023-04-29T03:45:56.261Z,71.96
2023-04-29T03:50:58.538Z,72.03
2023-04-29T03:56:00.765Z,72.18
2023-04-29T04:07:31.539Z,70.85
2023-04-29T04:13:10.586Z,71.42
2023-04-29T04:18:11.835Z,72.38
2023-04-29T04:23:14.761Z,72.46
2023-04-29T04:28:17.588Z,72.71
2023-04-29T04:33:33.568Z,73.07
2023-04-29T04:38:34.745Z,72.82
2023-04-29T04:43:40.430Z,71.77
2023-04-29T04:48:48.045Z,71.01
2023-04-29T04:53:57.989Z,70.83
2023-04-29T04:59:00.709Z,69.11
2023-04-29T05:04:02.727Z,68.13
2023-04-29T05:09:04.852Z,67.79
2023-04-29T05:14:06.199Z,67.43
2023-04-29T05:19:09.019Z,67.29
2023-04-29T05:24:12.308Z,67.10
2023-04-29T05:29:14.480Z,67.21
2023-04-29T05:34:24.169Z,67.25
2023-04-29T05:39:26.666Z,67.15
2023-04-29T05:44:46.831Z,67.26
2023-04-29T05:49:48.688Z,67.39
2023-04-29T05:54:49.800Z,66.94
2023-04-29T05:59:54.541Z,66.74
2023-04-29T06:04:56.081Z,66.55
2023-04-29T06:10:10.262Z,66.19
2023-04-29T06:15:11.861Z,66.17
2023-04-29T06:20:13.092Z,66.40
2023-04-29T06:25:14.356Z,66.17
2023-04-29T06:30:23.418Z,65.99
2023-04-29T06:35:25.113Z,65.61
2023-04-29T06:40:35.055Z,65.16
2023-04-29T06:45:55.328Z,64.60
2023-04-29T06:51:04.033Z,64.24
2023-04-29T06:56:06.217Z,63.86
2023-04-29T07:01:08.020Z,63.34
2023-04-29T07:06:09.119Z,62.49
2023-04-29T07:11:10.474Z,62.20
2023-04-29T07:16:19.524Z,61.70
2023-04-29T07:21:20.818Z,61.30
2023-04-29T07:26:22.458Z,60.50
2023-04-29T07:31:23.570Z,59.62
2023-04-29T07:36:25.047Z,59.77
2023-04-29T07:41:27.489Z,59.30
2023-04-29T07:46:28.564Z,58.83
2023-04-29T07:51:29.667Z,58.38
2023-04-29T07:56:30.647Z,58.33
2023-04-29T08:01:32.378Z,58.05
2023-04-29T08:06:34.263Z,57.84
2023-04-29T08:11:36.878Z,57.36
2023-04-29T08:16:38.389Z,56.78
2023-04-29T08:21:39.694Z,56.20
2023-04-29T08:26:41.818Z,54.69
2023-04-29T08:31:42.839Z,53.74
2023-04-29T08:36:43.820Z,52.86
2023-04-29T08:41:48.793Z,51.56
2023-04-29T08:46:50.667Z,51.89
2023-04-29T08:51:51.751Z,52.36
2023-04-29T08:56:53.372Z,51.69
2023-04-29T09:01:55.660Z,50.47
2023-04-29T09:06:57.747Z,50.51
2023-04-29T09:11:58.760Z,51.41
2023-04-29T09:17:00.278Z,52.55
2023-04-29T09:22:03.088Z,52.81
2023-04-29T09:27:04.551Z,52.32
2023-04-29T09:32:20.945Z,52.20
2023-04-29T09:37:27.357Z,52.31
2023-04-29T09:42:28.617Z,52.29
2023-04-29T09:47:33.110Z,53.18
2023-04-29T09:52:41.756Z,53.47
2023-04-29T09:57:45.070Z,54.52
2023-04-29T10:02:47.892Z,55.65
2023-04-29T10:07:50.704Z,56.56
2023-04-29T10:12:54.148Z,57.29
2023-04-29T10:18:11.789Z,58.12
2023-04-29T10:23:16.486Z,58.86
2023-04-29T10:28:19.695Z,59.27
2023-04-29T10:33:22.579Z,58.78
2023-04-29T10:38:30.515Z,58.19
2023-04-29T10:43:31.627Z,58.03
2023-04-29T10:48:32.625Z,58.21
2023-04-29T10:53:33.874Z,57.99
2023-04-29T10:58:43.609Z,58.51
2023-04-29T11:03:54.085Z,61.47
2023-04-29T11:09:10.280Z,63.84
2023-04-29T11:14:13.680Z,65.16
2023-04-29T11:19:17.021Z,65.91
2023-04-29T11:24:18.025Z,67.16
2023-04-29T11:29:19.265Z,67.34
2023-04-29T11:34:25.017Z,65.85
2023-04-29T11:39:27.000Z,64.28
2023-04-29T11:44:28.276Z,61.67
2023-04-29T11:49:32.042Z,60.07
2023-04-29T11:54:33.210Z,59.11
2023-04-29T11:59:34.361Z,58.33
2023-04-29T12:04:44.884Z,57.06
2023-04-29T12:09:46.674Z,55.46
2023-04-29T12:14:48.591Z,53.24
2023-04-29T12:19:49.811Z,52.33
2023-04-29T12:24:53.686Z,52.40
2023-04-29T12:29:56.991Z,51.81
2023-04-29T12:34:58.010Z,51.88
2023-04-29T12:39:59.130Z,50.95
2023-04-29T12:45:00.367Z,50.98
2023-04-29T12:50:01.737Z,50.60
2023-04-29T12:55:03.968Z,50.64
2023-04-29T13:00:06.982Z,50.25
2023-04-29T13:05:11.506Z,50.25
2023-04-29T13:10:13.150Z,49.89
2023-04-29T13:15:14.776Z,50.44
2023-04-29T13:20:15.836Z,50.54
2023-04-29T13:25:16.876Z,50.48
2023-04-29T13:30:18.198Z,50.96
2023-04-29T13:35:19.244Z,49.18
2023-04-29T13:40:21.226Z,49.43
2023-04-29T13:45:22.707Z,48.75
2023-04-29T13:51:09.691Z,48.15
2023-04-29T14:01:17.114Z,49.65
2023-04-29T14:06:09.894Z,50.99
2023-04-29T14:11:10.916Z,51.82
2023-04-29T14:16:12.073Z,51.79
2023-04-29T14:21:13.820Z,51.97
2023-04-29T14:31:19.079Z,52.02
2023-04-29T14:36:20.379Z,52.10
2023-04-29T14:41:21.462Z,52.58
2023-04-29T14:46:22.817Z,53.01
2023-04-29T14:51:24.964Z,54.03
2023-04-29T14:56:26.881Z,55.48
2023-04-29T15:01:29.288Z,57.01
2023-04-29T15:06:32.804Z,57.92
2023-04-29T15:11:33.973Z,58.34
2023-04-29T15:16:35.675Z,58.54
2023-04-29T15:21:36.750Z,60.17
2023-04-29T15:26:37.841Z,61.67
2023-04-29T15:31:38.938Z,62.62
2023-04-29T15:36:41.300Z,63.26
2023-04-29T15:41:42.325Z,64.51
2023-04-29T15:46:43.317Z,65.57
2023-04-29T15:51:44.225Z,66.36
2023-04-29T15:56:45.631Z,66.77
2023-04-29T16:01:46.787Z,67.01
2023-04-29T16:06:48.414Z,67.95
2023-04-29T16:11:52.386Z,68.05
2023-04-29T16:16:54.369Z,68.33
2023-04-29T16:21:55.626Z,68.58
2023-04-29T16:26:58.223Z,68.51
2023-04-29T16:31:59.199Z,68.10
2023-04-29T16:37:00.202Z,68.22
2023-04-29T16:42:01.230Z,68.83
2023-04-29T16:47:03.304Z,69.10
2023-04-29T16:52:04.529Z,69.39
2023-04-29T16:57:05.543Z,70.04
2023-04-29T17:02:06.933Z,70.30
2023-04-29T17:07:08.714Z,70.90
2023-04-29T17:12:09.821Z,71.19
2023-04-29T17:17:11.238Z,71.12
2023-04-29T17:22:12.639Z,71.50
2023-04-29T17:27:13.727Z,72.55
2023-04-29T17:32:16.735Z,72.52
2023-04-29T17:37:24.142Z,72.84
2023-04-29T17:42:25.367Z,73.30
2023-04-29T17:47:26.442Z,74.29
2023-04-29T17:52:27.504Z,75.53
2023-04-29T17:57:28.440Z,75.40
2023-04-29T18:02:29.799Z,75.73
2023-04-29T18:07:30.909Z,76.08
2023-04-29T18:12:32.527Z,76.37
2023-04-29T18:17:33.675Z,76.76
2023-04-29T18:22:34.826Z,77.51
2023-04-29T18:27:35.959Z,77.60
2023-04-29T18:32:37.591Z,77.48
2023-04-29T18:37:39.380Z,77.61
2023-04-29T18:42:40.384Z,77.84
2023-04-29T18:47:41.445Z,78.26
2023-04-29T18:52:42.605Z,79.43
2023-04-29T18:57:43.634Z,80.43
2023-04-29T19:02:44.790Z,81.37
2023-04-29T19:07:45.860Z,82.85
2023-04-29T19:12:47.034Z,84.59
2023-04-29T19:17:48.129Z,85.70
2023-04-29T19:22:50.288Z,86.77
2023-04-29T19:27:52.301Z,88.32
2023-04-29T19:32:53.482Z,88.42
2023-04-29T19:37:54.876Z,88.22
2023-04-29T19:42:56.013Z,88.25
2023-04-29T19:48:01.191Z,88.34
2023-04-29T19:53:02.630Z,88.80
2023-04-29T19:58:03.799Z,89.29
2023-04-29T20:03:04.973Z,89.64
2023-04-29T20:08:06.531Z,89.67
2023-04-29T20:13:07.734Z,89.79
2023-04-29T20:18:08.965Z,89.50
2023-04-29T20:23:10.136Z,89.83
2023-04-29T20:28:11.383Z,90.10
2023-04-29T20:33:12.466Z,90.29
2023-04-29T20:38:13.538Z,90.31
2023-04-29T20:43:15.163Z,90.35
2023-04-29T20:48:17.090Z,90.55
2023-04-29T20:53:18.212Z,90.63
2023-04-29T20:58:19.231Z,90.43
2023-04-29T21:03:21.808Z,90.26
2023-04-29T21:08:23.558Z,90.17
2023-04-29T21:13:28.214Z,90.19
2023-04-29T21:18:29.248Z,90.33
2023-04-29T21:23:30.223Z,90.29
2023-04-29T21:28:31.374Z,90.22
2023-04-29T21:33:34.943Z,89.90
2023-04-29T21:38:38.323Z,89.75
2023-04-29T21:43:40.303Z,89.49
2023-04-29T21:49:02.624Z,89.22
2023-04-29T21:54:07.872Z,89.45
2023-04-29T21:59:08.899Z,89.37
2023-04-29T22:04:10.245Z,89.16
2023-04-29T22:09:11.176Z,88.88
2023-04-29T22:14:12.192Z,89.01
2023-04-29T22:19:13.463Z,89.22
2023-04-29T22:24:14.432Z,89.24
2023-04-29T22:29:15.515Z,89.04
2023-04-29T22:34:16.545Z,89.06
2023-04-29T22:39:18.006Z,89.24
2023-04-29T22:44:18.945Z,89.42
2023-04-29T22:49:20.108Z,89.51
2023-04-29T22:54:21.124Z,90.17
2023-04-29T22:59:22.125Z,91.00
2023-04-29T23:04:23.996Z,91.53
2023-04-29T23:09:26.180Z,91.96
2023-04-29T23:14:31.647Z,92.14
2023-04-29T23:19:32.689Z,92.01
2023-04-29T23:24:37.133Z,91.72
2023-04-29T23:29:40.713Z,91.23
2023-04-29T23:34:41.683Z,90.82
2023-04-29T23:39:43.334Z,90.51
2023-04-29T23:44:44.327Z,90.28
2023-04-29T23:49:52.406Z,90.08
2023-04-29T23:54:53.629Z,89.99
2023-04-29T23:59:54.952Z,89.79
